sensor_id;sensor_type;location;lat;lon;timestamp;P1;durP1;ratioP1;P2;durP2;ratioP2
58101;SDS011;52034;51.926;6.320;2023-04-01T00:00:03;7.93;;;3.73;;
58101;SDS011;52034;51.926;6.320;2023-04-01T00:01:12;6.28;;;4.63;;
58101;SDS011;52034;51.926;6.320;2023-04-01T00:02:14;7.05;;;4.50;;
58101;SDS011;52034;51.926;6.320;2023-04-01T00:03:14;9.33;;;4.63;;
58101;SDS011;52034;51.926;6.320;2023-04-01T00:04:15;10.07;;;4.70;;
58101;SDS011;52034;51.926;6.320;2023-04-01T00:05:15;7.30;;;4.10;;
58101;SDS011;52034;51.926;6.320;2023-04-01T00:06:16;6.90;;;4.15;;
58101;SDS011;52034;51.926;6.320;2023-04-01T00:07:18;7.03;;;4.03;;
58101;SDS011;52034;51.926;6.320;2023-04-01T00:08:18;8.17;;;4.53;;
58101;SDS011;52034;51.926;6.320;2023-04-01T00:09:19;9.77;;;4.33;;
58101;SDS011;52034;51.926;6.320;2023-04-01T00:10:19;7.30;;;4.00;;
58101;SDS011;52034;51.926;6.320;2023-04-01T00:11:20;6.83;;;4.70;;
58101;SDS011;52034;51.926;6.320;2023-04-01T00:12:20;8.48;;;4.45;;
58101;SDS011;52034;51.926;6.320;2023-04-01T00:13:21;8.40;;;4.70;;
58101;SDS011;52034;51.926;6.320;2023-04-01T00:14:21;9.07;;;4.27;;
58101;SDS011;52034;51.926;6.320;2023-04-01T00:15:22;7.90;;;3.70;;
58101;SDS011;52034;51.926;6.320;2023-04-01T00:16:22;7.60;;;4.27;;
58101;SDS011;52034;51.926;6.320;2023-04-01T00:17:22;8.57;;;4.50;;
58101;SDS011;52034;51.926;6.320;2023-04-01T00:18:23;10.60;;;4.47;;
58101;SDS011;52034;51.926;6.320;2023-04-01T00:19:24;6.28;;;3.92;;
58101;SDS011;52034;51.926;6.320;2023-04-01T00:20:24;5.30;;;4.10;;
58101;SDS011;52034;51.926;6.320;2023-04-01T00:21:25;9.00;;;5.00;;
58101;SDS011;52034;51.926;6.320;2023-04-01T00:22:26;7.90;;;4.93;;
58101;SDS011;52034;51.926;6.320;2023-04-01T00:23:27;10.75;;;4.88;;
58101;SDS011;52034;51.926;6.320;2023-04-01T00:24:27;6.93;;;4.90;;
58101;SDS011;52034;51.926;6.320;2023-04-01T00:25:27;7.63;;;4.90;;
58101;SDS011;52034;51.926;6.320;2023-04-01T00:26:28;6.72;;;4.50;;
58101;SDS011;52034;51.926;6.320;2023-04-01T00:27:29;7.97;;;4.37;;
58101;SDS011;52034;51.926;6.320;2023-04-01T00:28:29;7.77;;;4.93;;
58101;SDS011;52034;51.926;6.320;2023-04-01T00:29:29;9.70;;;5.03;;
58101;SDS011;52034;51.926;6.320;2023-04-01T00:30:30;7.00;;;4.22;;
58101;SDS011;52034;51.926;6.320;2023-04-01T00:31:31;7.87;;;4.33;;
58101;SDS011;52034;51.926;6.320;2023-04-01T00:32:31;7.10;;;4.67;;
58101;SDS011;52034;51.926;6.320;2023-04-01T00:33:32;6.87;;;4.83;;
58101;SDS011;52034;51.926;6.320;2023-04-01T00:34:32;8.03;;;5.33;;
58101;SDS011;52034;51.926;6.320;2023-04-01T00:35:33;5.97;;;4.53;;
58101;SDS011;52034;51.926;6.320;2023-04-01T00:36:33;6.80;;;4.23;;
58101;SDS011;52034;51.926;6.320;2023-04-01T00:37:36;6.97;;;4.47;;
58101;SDS011;52034;51.926;6.320;2023-04-01T00:38:37;6.43;;;4.80;;
58101;SDS011;52034;51.926;6.320;2023-04-01T00:39:38;6.82;;;4.85;;
58101;SDS011;52034;51.926;6.320;2023-04-01T00:40:40;9.77;;;5.30;;
58101;SDS011;52034;51.926;6.320;2023-04-01T00:41:42;7.15;;;4.53;;
58101;SDS011;52034;51.926;6.320;2023-04-01T00:42:42;9.00;;;5.47;;
58101;SDS011;52034;51.926;6.320;2023-04-01T00:43:43;5.93;;;5.20;;
58101;SDS011;52034;51.926;6.320;2023-04-01T00:44:52;6.03;;;4.65;;
58101;SDS011;52034;51.926;6.320;2023-04-01T00:45:54;7.80;;;4.78;;
58101;SDS011;52034;51.926;6.320;2023-04-01T00:46:55;8.20;;;4.87;;
58101;SDS011;52034;51.926;6.320;2023-04-01T00:47:56;8.40;;;5.10;;
58101;SDS011;52034;51.926;6.320;2023-04-01T00:48:58;8.68;;;5.22;;
58101;SDS011;52034;51.926;6.320;2023-04-01T00:50:00;7.63;;;4.60;;
58101;SDS011;52034;51.926;6.320;2023-04-01T00:51:05;5.90;;;4.50;;
58101;SDS011;52034;51.926;6.320;2023-04-01T00:52:13;6.30;;;4.53;;
58101;SDS011;52034;51.926;6.320;2023-04-01T00:53:17;4.70;;;4.10;;
58101;SDS011;52034;51.926;6.320;2023-04-01T00:54:19;7.32;;;4.55;;
58101;SDS011;52034;51.926;6.320;2023-04-01T00:55:22;7.03;;;4.57;;
58101;SDS011;52034;51.926;6.320;2023-04-01T00:56:33;5.55;;;4.30;;
58101;SDS011;52034;51.926;6.320;2023-04-01T00:57:37;7.28;;;4.65;;
58101;SDS011;52034;51.926;6.320;2023-04-01T00:59:42;6.95;;;5.13;;
58101;SDS011;52034;51.926;6.320;2023-04-01T01:00:45;4.93;;;4.50;;
58101;SDS011;52034;51.926;6.320;2023-04-01T01:01:48;7.25;;;4.80;;
58101;SDS011;52034;51.926;6.320;2023-04-01T01:02:48;5.23;;;4.47;;
58101;SDS011;52034;51.926;6.320;2023-04-01T01:03:50;5.15;;;4.43;;
58101;SDS011;52034;51.926;6.320;2023-04-01T01:04:51;6.80;;;4.47;;
58101;SDS011;52034;51.926;6.320;2023-04-01T01:08:35;8.38;;;5.60;;
58101;SDS011;52034;51.926;6.320;2023-04-01T01:10:57;8.10;;;4.90;;
58101;SDS011;52034;51.926;6.320;2023-04-01T01:13:02;6.70;;;4.63;;
58101;SDS011;52034;51.926;6.320;2023-04-01T01:14:51;6.70;;;4.22;;
58101;SDS011;52034;51.926;6.320;2023-04-01T01:15:32;5.88;;;5.03;;
58101;SDS011;52034;51.926;6.320;2023-04-01T01:16:48;7.35;;;4.55;;
58101;SDS011;52034;51.926;6.320;2023-04-01T01:18:11;6.80;;;4.55;;
58101;SDS011;52034;51.926;6.320;2023-04-01T01:19:26;8.02;;;4.75;;
58101;SDS011;52034;51.926;6.320;2023-04-01T01:22:27;7.95;;;4.43;;
58101;SDS011;52034;51.926;6.320;2023-04-01T01:24:04;6.47;;;5.18;;
58101;SDS011;52034;51.926;6.320;2023-04-01T01:25:30;6.38;;;4.50;;
58101;SDS011;52034;51.926;6.320;2023-04-01T01:27:00;7.43;;;4.50;;
58101;SDS011;52034;51.926;6.320;2023-04-01T01:28:09;7.35;;;5.03;;
58101;SDS011;52034;51.926;6.320;2023-04-01T01:29:32;8.60;;;5.20;;
58101;SDS011;52034;51.926;6.320;2023-04-01T01:30:44;9.73;;;4.88;;
58101;SDS011;52034;51.926;6.320;2023-04-01T01:32:22;8.73;;;4.90;;
58101;SDS011;52034;51.926;6.320;2023-04-01T01:35:22;5.68;;;5.18;;
58101;SDS011;52034;51.926;6.320;2023-04-01T01:36:50;8.18;;;5.38;;
58101;SDS011;52034;51.926;6.320;2023-04-01T01:37:58;7.35;;;4.80;;
58101;SDS011;52034;51.926;6.320;2023-04-01T01:39:03;5.10;;;4.60;;
58101;SDS011;52034;51.926;6.320;2023-04-01T01:40:07;6.68;;;5.03;;
58101;SDS011;52034;51.926;6.320;2023-04-01T01:41:11;7.97;;;5.05;;
58101;SDS011;52034;51.926;6.320;2023-04-01T01:43:16;8.88;;;5.55;;
58101;SDS011;52034;51.926;6.320;2023-04-01T01:44:22;5.68;;;4.68;;
58101;SDS011;52034;51.926;6.320;2023-04-01T01:45:25;8.25;;;5.32;;
58101;SDS011;52034;51.926;6.320;2023-04-01T01:46:26;6.82;;;5.05;;
58101;SDS011;52034;51.926;6.320;2023-04-01T01:47:29;7.57;;;5.30;;
58101;SDS011;52034;51.926;6.320;2023-04-01T01:48:31;6.93;;;4.55;;
58101;SDS011;52034;51.926;6.320;2023-04-01T01:49:33;7.07;;;5.30;;
58101;SDS011;52034;51.926;6.320;2023-04-01T01:50:36;7.30;;;5.05;;
58101;SDS011;52034;51.926;6.320;2023-04-01T01:51:39;8.18;;;5.13;;
58101;SDS011;52034;51.926;6.320;2023-04-01T01:52:42;7.80;;;5.55;;
58101;SDS011;52034;51.926;6.320;2023-04-01T01:53:43;7.78;;;5.55;;
58101;SDS011;52034;51.926;6.320;2023-04-01T01:54:51;7.37;;;5.67;;
58101;SDS011;52034;51.926;6.320;2023-04-01T01:55:54;6.40;;;5.30;;
58101;SDS011;52034;51.926;6.320;2023-04-01T01:57:01;8.93;;;5.40;;
58101;SDS011;52034;51.926;6.320;2023-04-01T01:59:18;8.23;;;5.80;;
58101;SDS011;52034;51.926;6.320;2023-04-01T02:00:21;7.03;;;5.70;;
58101;SDS011;52034;51.926;6.320;2023-04-01T02:01:23;6.72;;;5.55;;
58101;SDS011;52034;51.926;6.320;2023-04-01T02:02:27;7.35;;;5.53;;
58101;SDS011;52034;51.926;6.320;2023-04-01T02:03:33;6.47;;;5.82;;
58101;SDS011;52034;51.926;6.320;2023-04-01T02:04:39;8.80;;;6.85;;
58101;SDS011;52034;51.926;6.320;2023-04-01T02:05:42;11.25;;;6.50;;
58101;SDS011;52034;51.926;6.320;2023-04-01T02:06:46;9.57;;;6.80;;
58101;SDS011;52034;51.926;6.320;2023-04-01T02:07:58;8.93;;;6.05;;
58101;SDS011;52034;51.926;6.320;2023-04-01T02:09:02;8.73;;;6.65;;
58101;SDS011;52034;51.926;6.320;2023-04-01T02:10:05;10.90;;;7.53;;
58101;SDS011;52034;51.926;6.320;2023-04-01T02:11:07;9.38;;;7.13;;
58101;SDS011;52034;51.926;6.320;2023-04-01T02:12:14;10.80;;;7.72;;
58101;SDS011;52034;51.926;6.320;2023-04-01T02:13:22;8.23;;;7.38;;
58101;SDS011;52034;51.926;6.320;2023-04-01T02:14:31;9.80;;;7.32;;
58101;SDS011;52034;51.926;6.320;2023-04-01T02:15:41;12.32;;;7.60;;
58101;SDS011;52034;51.926;6.320;2023-04-01T02:16:47;8.50;;;7.22;;
58101;SDS011;52034;51.926;6.320;2023-04-01T02:17:51;9.77;;;7.75;;
58101;SDS011;52034;51.926;6.320;2023-04-01T02:18:53;11.98;;;8.60;;
58101;SDS011;52034;51.926;6.320;2023-04-01T02:20:01;11.50;;;8.02;;
58101;SDS011;52034;51.926;6.320;2023-04-01T02:21:06;9.43;;;8.10;;
58101;SDS011;52034;51.926;6.320;2023-04-01T02:23:10;8.85;;;7.95;;
58101;SDS011;52034;51.926;6.320;2023-04-01T02:24:12;11.65;;;8.38;;
58101;SDS011;52034;51.926;6.320;2023-04-01T02:25:17;12.27;;;8.43;;
58101;SDS011;52034;51.926;6.320;2023-04-01T02:26:21;10.32;;;8.35;;
58101;SDS011;52034;51.926;6.320;2023-04-01T02:27:23;10.80;;;8.13;;
58101;SDS011;52034;51.926;6.320;2023-04-01T02:28:24;12.30;;;8.57;;
58101;SDS011;52034;51.926;6.320;2023-04-01T02:29:25;14.00;;;8.95;;
58101;SDS011;52034;51.926;6.320;2023-04-01T02:30:27;12.50;;;8.60;;
58101;SDS011;52034;51.926;6.320;2023-04-01T02:31:29;10.93;;;8.20;;
58101;SDS011;52034;51.926;6.320;2023-04-01T02:32:30;15.35;;;9.05;;
58101;SDS011;52034;51.926;6.320;2023-04-01T02:33:33;9.93;;;8.48;;
58101;SDS011;52034;51.926;6.320;2023-04-01T02:34:34;11.48;;;8.45;;
58101;SDS011;52034;51.926;6.320;2023-04-01T02:35:35;14.13;;;9.52;;
58101;SDS011;52034;51.926;6.320;2023-04-01T02:36:37;11.52;;;8.77;;
58101;SDS011;52034;51.926;6.320;2023-04-01T02:37:38;10.70;;;8.32;;
58101;SDS011;52034;51.926;6.320;2023-04-01T02:38:42;11.43;;;8.77;;
58101;SDS011;52034;51.926;6.320;2023-04-01T02:39:44;12.90;;;8.80;;
58101;SDS011;52034;51.926;6.320;2023-04-01T02:40:49;10.67;;;8.60;;
58101;SDS011;52034;51.926;6.320;2023-04-01T02:41:51;11.73;;;9.00;;
58101;SDS011;52034;51.926;6.320;2023-04-01T02:42:52;12.43;;;9.05;;
58101;SDS011;52034;51.926;6.320;2023-04-01T02:43:52;11.17;;;8.83;;
58101;SDS011;52034;51.926;6.320;2023-04-01T02:44:53;12.37;;;9.43;;
58101;SDS011;52034;51.926;6.320;2023-04-01T02:45:53;14.23;;;9.80;;
58101;SDS011;52034;51.926;6.320;2023-04-01T02:46:54;10.33;;;8.57;;
58101;SDS011;52034;51.926;6.320;2023-04-01T02:47:54;10.57;;;8.33;;
58101;SDS011;52034;51.926;6.320;2023-04-01T02:48:54;10.57;;;8.80;;
58101;SDS011;52034;51.926;6.320;2023-04-01T02:49:55;15.20;;;9.30;;
58101;SDS011;52034;51.926;6.320;2023-04-01T02:50:58;11.10;;;9.10;;
58101;SDS011;52034;51.926;6.320;2023-04-01T02:51:58;11.33;;;8.73;;
58101;SDS011;52034;51.926;6.320;2023-04-01T02:52:59;12.40;;;9.20;;
58101;SDS011;52034;51.926;6.320;2023-04-01T02:53:59;9.83;;;8.90;;
58101;SDS011;52034;51.926;6.320;2023-04-01T02:55:00;10.23;;;8.27;;
58101;SDS011;52034;51.926;6.320;2023-04-01T02:56:00;10.93;;;9.57;;
58101;SDS011;52034;51.926;6.320;2023-04-01T02:57:00;11.87;;;9.10;;
58101;SDS011;52034;51.926;6.320;2023-04-01T02:58:01;14.60;;;8.57;;
58101;SDS011;52034;51.926;6.320;2023-04-01T02:59:02;12.60;;;8.85;;
58101;SDS011;52034;51.926;6.320;2023-04-01T03:00:03;11.03;;;9.60;;
58101;SDS011;52034;51.926;6.320;2023-04-01T03:01:04;12.20;;;8.90;;
58101;SDS011;52034;51.926;6.320;2023-04-01T03:02:04;12.63;;;8.93;;
58101;SDS011;52034;51.926;6.320;2023-04-01T03:03:05;8.73;;;7.83;;
58101;SDS011;52034;51.926;6.320;2023-04-01T03:04:05;11.70;;;8.77;;
58101;SDS011;52034;51.926;6.320;2023-04-01T03:05:06;12.00;;;8.90;;
58101;SDS011;52034;51.926;6.320;2023-04-01T03:06:07;15.52;;;9.73;;
58101;SDS011;52034;51.926;6.320;2023-04-01T03:07:09;13.32;;;9.52;;
58101;SDS011;52034;51.926;6.320;2023-04-01T03:08:10;12.90;;;9.55;;
58101;SDS011;52034;51.926;6.320;2023-04-01T03:09:11;10.50;;;8.88;;
58101;SDS011;52034;51.926;6.320;2023-04-01T03:10:12;10.37;;;8.70;;
58101;SDS011;52034;51.926;6.320;2023-04-01T03:11:13;10.02;;;9.00;;
58101;SDS011;52034;51.926;6.320;2023-04-01T03:12:13;11.57;;;9.30;;
58101;SDS011;52034;51.926;6.320;2023-04-01T03:13:23;10.43;;;8.25;;
58101;SDS011;52034;51.926;6.320;2023-04-01T03:14:23;10.67;;;9.20;;
58101;SDS011;52034;51.926;6.320;2023-04-01T03:15:23;10.77;;;9.67;;
58101;SDS011;52034;51.926;6.320;2023-04-01T03:16:24;11.03;;;9.70;;
58101;SDS011;52034;51.926;6.320;2023-04-01T03:17:25;11.20;;;10.07;;
58101;SDS011;52034;51.926;6.320;2023-04-01T03:18:25;9.97;;;8.93;;
58101;SDS011;52034;51.926;6.320;2023-04-01T03:19:26;12.15;;;9.85;;
58101;SDS011;52034;51.926;6.320;2023-04-01T03:20:26;11.07;;;9.90;;
58101;SDS011;52034;51.926;6.320;2023-04-01T03:21:27;12.00;;;9.87;;
58101;SDS011;52034;51.926;6.320;2023-04-01T03:22:27;13.50;;;10.40;;
58101;SDS011;52034;51.926;6.320;2023-04-01T03:23:27;13.33;;;9.73;;
58101;SDS011;52034;51.926;6.320;2023-04-01T03:24:27;10.67;;;9.57;;
58101;SDS011;52034;51.926;6.320;2023-04-01T03:25:28;11.93;;;9.87;;
58101;SDS011;52034;51.926;6.320;2023-04-01T03:26:30;13.25;;;10.70;;
58101;SDS011;52034;51.926;6.320;2023-04-01T03:27:31;12.43;;;9.55;;
58101;SDS011;52034;51.926;6.320;2023-04-01T03:28:31;13.77;;;10.27;;
58101;SDS011;52034;51.926;6.320;2023-04-01T03:29:32;10.47;;;9.37;;
58101;SDS011;52034;51.926;6.320;2023-04-01T03:30:32;10.93;;;9.77;;
58101;SDS011;52034;51.926;6.320;2023-04-01T03:31:33;12.80;;;10.35;;
58101;SDS011;52034;51.926;6.320;2023-04-01T03:32:34;11.70;;;9.27;;
58101;SDS011;52034;51.926;6.320;2023-04-01T03:33:35;10.83;;;9.73;;
58101;SDS011;52034;51.926;6.320;2023-04-01T03:34:35;10.30;;;9.17;;
58101;SDS011;52034;51.926;6.320;2023-04-01T03:35:36;11.17;;;9.37;;
58101;SDS011;52034;51.926;6.320;2023-04-01T03:36:36;12.93;;;10.70;;
58101;SDS011;52034;51.926;6.320;2023-04-01T03:37:37;12.27;;;9.63;;
58101;SDS011;52034;51.926;6.320;2023-04-01T03:38:38;11.17;;;9.13;;
58101;SDS011;52034;51.926;6.320;2023-04-01T03:39:42;11.43;;;9.32;;
58101;SDS011;52034;51.926;6.320;2023-04-01T03:40:42;11.53;;;9.87;;
58101;SDS011;52034;51.926;6.320;2023-04-01T03:41:44;15.38;;;10.02;;
58101;SDS011;52034;51.926;6.320;2023-04-01T03:42:45;11.75;;;9.93;;
58101;SDS011;52034;51.926;6.320;2023-04-01T03:43:46;14.10;;;10.23;;
58101;SDS011;52034;51.926;6.320;2023-04-01T03:44:46;15.27;;;11.23;;
58101;SDS011;52034;51.926;6.320;2023-04-01T03:45:48;11.48;;;9.27;;
58101;SDS011;52034;51.926;6.320;2023-04-01T03:47:51;13.05;;;9.88;;
58101;SDS011;52034;51.926;6.320;2023-04-01T03:48:51;10.33;;;9.10;;
58101;SDS011;52034;51.926;6.320;2023-04-01T03:49:53;12.30;;;8.95;;
58101;SDS011;52034;51.926;6.320;2023-04-01T03:50:53;13.10;;;10.27;;
58101;SDS011;52034;51.926;6.320;2023-04-01T03:51:54;13.93;;;10.47;;
58101;SDS011;52034;51.926;6.320;2023-04-01T03:52:54;11.47;;;9.30;;
58101;SDS011;52034;51.926;6.320;2023-04-01T03:53:55;14.17;;;10.97;;
58101;SDS011;52034;51.926;6.320;2023-04-01T03:54:55;14.17;;;10.73;;
58101;SDS011;52034;51.926;6.320;2023-04-01T03:55:56;14.25;;;10.57;;
58101;SDS011;52034;51.926;6.320;2023-04-01T03:56:57;12.23;;;10.40;;
58101;SDS011;52034;51.926;6.320;2023-04-01T03:57:59;13.63;;;10.85;;
58101;SDS011;52034;51.926;6.320;2023-04-01T03:59:02;12.93;;;10.45;;
58101;SDS011;52034;51.926;6.320;2023-04-01T04:00:05;11.02;;;9.10;;
58101;SDS011;52034;51.926;6.320;2023-04-01T04:01:20;11.80;;;9.43;;
58101;SDS011;52034;51.926;6.320;2023-04-01T04:02:24;12.85;;;9.40;;
58101;SDS011;52034;51.926;6.320;2023-04-01T04:03:24;11.53;;;9.50;;
58101;SDS011;52034;51.926;6.320;2023-04-01T04:04:26;9.98;;;8.50;;
58101;SDS011;52034;51.926;6.320;2023-04-01T04:05:27;10.55;;;8.55;;
58101;SDS011;52034;51.926;6.320;2023-04-01T04:06:27;9.60;;;7.97;;
58101;SDS011;52034;51.926;6.320;2023-04-01T04:07:28;10.33;;;8.37;;
58101;SDS011;52034;51.926;6.320;2023-04-01T04:08:36;7.47;;;6.47;;
58101;SDS011;52034;51.926;6.320;2023-04-01T04:09:37;8.17;;;7.37;;
58101;SDS011;52034;51.926;6.320;2023-04-01T04:10:37;8.00;;;7.20;;
58101;SDS011;52034;51.926;6.320;2023-04-01T04:11:37;10.47;;;7.93;;
58101;SDS011;52034;51.926;6.320;2023-04-01T04:12:37;12.10;;;8.47;;
58101;SDS011;52034;51.926;6.320;2023-04-01T04:13:38;10.03;;;8.57;;
58101;SDS011;52034;51.926;6.320;2023-04-01T04:14:39;11.07;;;8.70;;
58101;SDS011;52034;51.926;6.320;2023-04-01T04:15:39;9.70;;;8.60;;
58101;SDS011;52034;51.926;6.320;2023-04-01T04:16:40;13.50;;;8.63;;
58101;SDS011;52034;51.926;6.320;2023-04-01T04:17:41;12.50;;;9.07;;
58101;SDS011;52034;51.926;6.320;2023-04-01T04:18:41;15.13;;;9.87;;
58101;SDS011;52034;51.926;6.320;2023-04-01T04:19:42;9.77;;;8.17;;
58101;SDS011;52034;51.926;6.320;2023-04-01T04:20:44;11.68;;;8.88;;
58101;SDS011;52034;51.926;6.320;2023-04-01T04:21:47;13.10;;;9.15;;
58101;SDS011;52034;51.926;6.320;2023-04-01T04:22:47;12.37;;;9.47;;
58101;SDS011;52034;51.926;6.320;2023-04-01T04:23:48;11.10;;;8.70;;
58101;SDS011;52034;51.926;6.320;2023-04-01T04:24:50;10.48;;;8.35;;
58101;SDS011;52034;51.926;6.320;2023-04-01T04:25:59;9.40;;;7.85;;
58101;SDS011;52034;51.926;6.320;2023-04-01T04:27:02;9.82;;;8.57;;
58101;SDS011;52034;51.926;6.320;2023-04-01T04:28:03;9.95;;;7.85;;
58101;SDS011;52034;51.926;6.320;2023-04-01T04:29:04;10.13;;;8.37;;
58101;SDS011;52034;51.926;6.320;2023-04-01T04:30:05;9.07;;;8.18;;
58101;SDS011;52034;51.926;6.320;2023-04-01T04:31:07;10.55;;;8.00;;
58101;SDS011;52034;51.926;6.320;2023-04-01T04:32:09;9.30;;;8.32;;
58101;SDS011;52034;51.926;6.320;2023-04-01T04:33:10;8.00;;;7.20;;
58101;SDS011;52034;51.926;6.320;2023-04-01T04:34:10;10.27;;;7.70;;
58101;SDS011;52034;51.926;6.320;2023-04-01T04:35:11;8.90;;;7.27;;
58101;SDS011;52034;51.926;6.320;2023-04-01T04:36:11;9.33;;;7.93;;
58101;SDS011;52034;51.926;6.320;2023-04-01T04:37:12;8.32;;;7.50;;
58101;SDS011;52034;51.926;6.320;2023-04-01T04:38:12;8.23;;;7.37;;
58101;SDS011;52034;51.926;6.320;2023-04-01T04:39:13;9.57;;;8.20;;
58101;SDS011;52034;51.926;6.320;2023-04-01T04:40:16;9.55;;;8.02;;
58101;SDS011;52034;51.926;6.320;2023-04-01T04:41:17;9.93;;;7.73;;
58101;SDS011;52034;51.926;6.320;2023-04-01T04:42:21;9.13;;;7.80;;
58101;SDS011;52034;51.926;6.320;2023-04-01T04:43:24;8.98;;;8.05;;
58101;SDS011;52034;51.926;6.320;2023-04-01T04:44:25;9.32;;;7.75;;
58101;SDS011;52034;51.926;6.320;2023-04-01T04:45:25;9.57;;;8.03;;
58101;SDS011;52034;51.926;6.320;2023-04-01T04:46:29;9.02;;;7.60;;
58101;SDS011;52034;51.926;6.320;2023-04-01T04:47:38;9.07;;;7.68;;
58101;SDS011;52034;51.926;6.320;2023-04-01T04:48:39;8.03;;;7.20;;
58101;SDS011;52034;51.926;6.320;2023-04-01T04:49:39;8.93;;;7.20;;
58101;SDS011;52034;51.926;6.320;2023-04-01T04:50:42;9.57;;;8.07;;
58101;SDS011;52034;51.926;6.320;2023-04-01T04:51:43;7.90;;;7.10;;
58101;SDS011;52034;51.926;6.320;2023-04-01T04:52:44;9.43;;;7.47;;
58101;SDS011;52034;51.926;6.320;2023-04-01T04:53:45;9.60;;;7.27;;
58101;SDS011;52034;51.926;6.320;2023-04-01T04:54:46;9.73;;;8.07;;
58101;SDS011;52034;51.926;6.320;2023-04-01T04:55:47;8.33;;;7.53;;
58101;SDS011;52034;51.926;6.320;2023-04-01T04:56:57;9.02;;;7.05;;
58101;SDS011;52034;51.926;6.320;2023-04-01T04:57:59;10.38;;;8.05;;
58101;SDS011;52034;51.926;6.320;2023-04-01T04:58:59;11.00;;;7.83;;
58101;SDS011;52034;51.926;6.320;2023-04-01T05:00:10;9.02;;;7.15;;
58101;SDS011;52034;51.926;6.320;2023-04-01T05:01:22;10.48;;;8.10;;
58101;SDS011;52034;51.926;6.320;2023-04-01T05:02:22;11.23;;;8.47;;
58101;SDS011;52034;51.926;6.320;2023-04-01T05:03:22;11.40;;;8.43;;
58101;SDS011;52034;51.926;6.320;2023-04-01T05:04:23;8.83;;;7.70;;
58101;SDS011;52034;51.926;6.320;2023-04-01T05:05:23;10.13;;;7.70;;
58101;SDS011;52034;51.926;6.320;2023-04-01T05:06:24;8.27;;;7.47;;
58101;SDS011;52034;51.926;6.320;2023-04-01T05:07:26;12.15;;;8.55;;
58101;SDS011;52034;51.926;6.320;2023-04-01T05:08:26;8.40;;;7.50;;
58101;SDS011;52034;51.926;6.320;2023-04-01T05:09:26;12.33;;;8.80;;
58101;SDS011;52034;51.926;6.320;2023-04-01T05:10:27;12.70;;;8.67;;
58101;SDS011;52034;51.926;6.320;2023-04-01T05:11:27;9.77;;;7.90;;
58101;SDS011;52034;51.926;6.320;2023-04-01T05:12:29;11.57;;;7.80;;
58101;SDS011;52034;51.926;6.320;2023-04-01T05:13:33;12.07;;;8.38;;
58101;SDS011;52034;51.926;6.320;2023-04-01T05:14:35;12.60;;;8.95;;
58101;SDS011;52034;51.926;6.320;2023-04-01T05:15:41;11.55;;;8.90;;
58101;SDS011;52034;51.926;6.320;2023-04-01T05:16:42;12.77;;;8.70;;
58101;SDS011;52034;51.926;6.320;2023-04-01T05:17:42;10.87;;;8.37;;
58101;SDS011;52034;51.926;6.320;2023-04-01T05:18:43;12.60;;;8.38;;
58101;SDS011;52034;51.926;6.320;2023-04-01T05:19:44;11.40;;;8.90;;
58101;SDS011;52034;51.926;6.320;2023-04-01T05:20:49;10.63;;;8.17;;
58101;SDS011;52034;51.926;6.320;2023-04-01T05:21:50;11.30;;;8.23;;
58101;SDS011;52034;51.926;6.320;2023-04-01T05:22:59;11.15;;;8.27;;
58101;SDS011;52034;51.926;6.320;2023-04-01T05:23:59;11.73;;;7.90;;
58101;SDS011;52034;51.926;6.320;2023-04-01T05:25:00;9.95;;;7.53;;
58101;SDS011;52034;51.926;6.320;2023-04-01T05:26:03;12.35;;;8.70;;
58101;SDS011;52034;51.926;6.320;2023-04-01T05:27:11;9.32;;;7.60;;
58101;SDS011;52034;51.926;6.320;2023-04-01T05:28:14;10.25;;;8.30;;
58101;SDS011;52034;51.926;6.320;2023-04-01T05:29:16;14.52;;;9.48;;
58101;SDS011;52034;51.926;6.320;2023-04-01T05:30:18;10.70;;;8.07;;
58101;SDS011;52034;51.926;6.320;2023-04-01T05:31:32;12.48;;;9.00;;
58101;SDS011;52034;51.926;6.320;2023-04-01T05:32:32;13.27;;;8.80;;
58101;SDS011;52034;51.926;6.320;2023-04-01T05:34:36;12.50;;;8.93;;
58101;SDS011;52034;51.926;6.320;2023-04-01T05:35:36;8.77;;;7.83;;
58101;SDS011;52034;51.926;6.320;2023-04-01T05:36:36;13.07;;;9.03;;
58101;SDS011;52034;51.926;6.320;2023-04-01T05:37:37;9.80;;;8.17;;
58101;SDS011;52034;51.926;6.320;2023-04-01T05:38:38;11.50;;;8.57;;
58101;SDS011;52034;51.926;6.320;2023-04-01T05:39:42;12.43;;;8.95;;
58101;SDS011;52034;51.926;6.320;2023-04-01T05:40:42;9.37;;;8.03;;
58101;SDS011;52034;51.926;6.320;2023-04-01T05:41:43;8.63;;;7.03;;
58101;SDS011;52034;51.926;6.320;2023-04-01T05:42:43;10.90;;;8.23;;
58101;SDS011;52034;51.926;6.320;2023-04-01T05:43:43;10.90;;;8.53;;
58101;SDS011;52034;51.926;6.320;2023-04-01T05:45:04;8.93;;;7.60;;
58101;SDS011;52034;51.926;6.320;2023-04-01T05:46:41;9.77;;;8.05;;
58101;SDS011;52034;51.926;6.320;2023-04-01T05:47:54;8.73;;;7.80;;
58101;SDS011;52034;51.926;6.320;2023-04-01T05:48:54;10.07;;;8.13;;
58101;SDS011;52034;51.926;6.320;2023-04-01T05:49:57;9.43;;;7.68;;
58101;SDS011;52034;51.926;6.320;2023-04-01T05:50:57;9.90;;;8.23;;
58101;SDS011;52034;51.926;6.320;2023-04-01T05:51:58;9.13;;;8.13;;
58101;SDS011;52034;51.926;6.320;2023-04-01T05:52:58;9.63;;;7.90;;
58101;SDS011;52034;51.926;6.320;2023-04-01T05:53:58;8.80;;;7.50;;
58101;SDS011;52034;51.926;6.320;2023-04-01T05:54:59;9.50;;;8.27;;
58101;SDS011;52034;51.926;6.320;2023-04-01T05:56:03;8.33;;;7.43;;
58101;SDS011;52034;51.926;6.320;2023-04-01T05:57:09;8.05;;;7.25;;
58101;SDS011;52034;51.926;6.320;2023-04-01T05:58:09;9.83;;;8.07;;
58101;SDS011;52034;51.926;6.320;2023-04-01T05:59:12;9.95;;;8.15;;
58101;SDS011;52034;51.926;6.320;2023-04-01T06:00:13;8.67;;;7.77;;
58101;SDS011;52034;51.926;6.320;2023-04-01T06:01:14;8.57;;;7.68;;
58101;SDS011;52034;51.926;6.320;2023-04-01T06:02:16;8.30;;;7.32;;
58101;SDS011;52034;51.926;6.320;2023-04-01T06:04:18;9.60;;;7.40;;
58101;SDS011;52034;51.926;6.320;2023-04-01T06:05:24;11.68;;;8.40;;
58101;SDS011;52034;51.926;6.320;2023-04-01T06:06:28;12.55;;;8.55;;
58101;SDS011;52034;51.926;6.320;2023-04-01T06:07:39;8.95;;;7.40;;
58101;SDS011;52034;51.926;6.320;2023-04-01T06:08:40;10.50;;;7.70;;
58101;SDS011;52034;51.926;6.320;2023-04-01T06:09:40;9.53;;;7.87;;
58101;SDS011;52034;51.926;6.320;2023-04-01T06:13:41;8.98;;;7.82;;
58101;SDS011;52034;51.926;6.320;2023-04-01T06:15:06;9.32;;;8.27;;
58101;SDS011;52034;51.926;6.320;2023-04-01T06:16:34;11.05;;;8.43;;
58101;SDS011;52034;51.926;6.320;2023-04-01T06:19:04;9.55;;;8.63;;
58101;SDS011;52034;51.926;6.320;2023-04-01T06:25:54;10.32;;;8.90;;
58101;SDS011;52034;51.926;6.320;2023-04-01T06:27:36;11.80;;;9.88;;
58101;SDS011;52034;51.926;6.320;2023-04-01T06:28:58;11.65;;;10.30;;
58101;SDS011;52034;51.926;6.320;2023-04-01T06:32:49;12.07;;;10.00;;
58101;SDS011;52034;51.926;6.320;2023-04-01T06:37:03;15.02;;;11.52;;
58101;SDS011;52034;51.926;6.320;2023-04-01T06:41:35;13.52;;;12.13;;
58101;SDS011;52034;51.926;6.320;2023-04-01T06:44:23;18.58;;;14.15;;
58101;SDS011;52034;51.926;6.320;2023-04-01T06:45:56;17.58;;;13.40;;
58101;SDS011;52034;51.926;6.320;2023-04-01T06:54:10;13.90;;;11.70;;
58101;SDS011;52034;51.926;6.320;2023-04-01T06:56:52;16.98;;;13.13;;
58101;SDS011;52034;51.926;6.320;2023-04-01T06:57:58;22.25;;;13.73;;
58101;SDS011;52034;51.926;6.320;2023-04-01T06:59:15;20.48;;;13.05;;
58101;SDS011;52034;51.926;6.320;2023-04-01T07:02:47;22.63;;;14.13;;
58101;SDS011;52034;51.926;6.320;2023-04-01T07:04:00;21.58;;;13.82;;
58101;SDS011;52034;51.926;6.320;2023-04-01T07:05:05;19.88;;;13.13;;
58101;SDS011;52034;51.926;6.320;2023-04-01T07:06:14;24.02;;;14.63;;
58101;SDS011;52034;51.926;6.320;2023-04-01T07:08:41;22.73;;;14.15;;
58101;SDS011;52034;51.926;6.320;2023-04-01T07:09:48;26.58;;;14.38;;